Time;durP1;ratioP1;P1;durP2;ratioP2;P2;SDS_P1;SDS_P2;PMS_P1;PMS_P2;Temp;Humidity;BMP_temperature;BMP_pressure;BME280_temperature;BME280_humidity;BME280_pressure;Samples;Min_cycle;Max_cycle;Signal;HPM_P1;HPM_P2
2022/01/08 00:00:22;;;;;;;47.10;43.10;;;;;;;23.09;30.99;95085.56;4892839;28;103352;-54
2022/01/08 00:02:48;;;;;;;42.90;39.20;;;;;;;23.08;30.66;95081.31;4889041;28;103056;-54
2022/01/08 00:05:14;;;;;;;43.03;39.43;;;;;;;23.08;31.11;95072.53;4875890;28;102995;-53
2022/01/08 00:07:40;;;;;;;43.80;40.13;;;;;;;23.08;31.34;95076.00;4884307;28;103400;-54
2022/01/08 00:10:06;;;;;;;45.07;41.37;;;;;;;23.06;31.17;95072.84;4913670;28;102942;-54
2022/01/08 00:12:32;;;;;;;41.37;37.97;;;;;;;23.05;31.07;95073.94;4913666;28;102774;-54
2022/01/08 00:14:58;;;;;;;44.50;40.80;;;;;;;23.07;30.92;95074.41;4916300;28;103238;-54
2022/01/08 00:17:23;;;;;;;41.10;37.80;;;;;;;23.06;30.84;95078.19;4915248;28;103505;-54
2022/01/08 00:19:52;;;;;;;40.87;37.57;;;;;;;23.06;30.92;95078.19;4915536;28;102863;-54
2022/01/08 00:22:18;;;;;;;45.20;41.30;;;;;;;23.06;30.96;95078.19;4915509;28;102824;-54
2022/01/08 00:24:44;;;;;;;43.37;39.77;;;;;;;23.06;30.84;95074.72;4905812;28;103096;-55
2022/01/08 00:27:09;;;;;;;43.90;40.30;;;;;;;23.05;30.98;95065.94;4900914;28;102658;-55
2022/01/08 00:29:35;;;;;;;41.80;38.30;;;;;;;23.04;30.71;95064.38;4898642;28;102933;-54
2022/01/08 00:32:00;;;;;;;39.30;36.00;;;;;;;23.06;30.98;95066.72;4916896;28;102816;-54
2022/01/08 00:34:26;;;;;;;42.10;38.60;;;;;;;23.06;30.73;95056.84;4909186;28;102824;-54
2022/01/08 00:36:51;;;;;;;41.20;37.80;;;;;;;23.03;31.27;95056.69;4899133;28;104018;-54
2022/01/08 00:39:17;;;;;;;44.27;40.67;;;;;;;23.03;30.47;95052.16;4912231;28;102974;-54
2022/01/08 00:41:42;;;;;;;44.40;40.73;;;;;;;23.02;30.93;95055.91;4917210;28;102764;-55
2022/01/08 00:44:08;;;;;;;39.50;36.20;;;;;;;23.03;31.08;95052.16;4904907;28;103765;-54
2022/01/08 00:46:34;;;;;;;42.87;39.37;;;;;;;23.03;31.21;95049.47;4898839;28;102724;-54
2022/01/08 00:49:01;;;;;;;39.57;36.37;;;;;;;23.03;31.02;95046.03;4899367;28;103374;-55
2022/01/08 00:51:26;;;;;;;39.47;36.17;;;;;;;23.02;31.14;95050.56;4920784;28;103385;-54
2022/01/08 00:53:52;;;;;;;46.93;43.00;;;;;;;23.02;30.87;95055.91;4936937;28;102710;-54
2022/01/08 00:56:17;;;;;;;44.27;40.67;;;;;;;23.01;30.78;95057.00;4924059;28;102817;-54
2022/01/08 00:58:43;;;;;;;40.00;36.70;;;;;;;23.02;30.68;95044.47;4915249;28;102982;-56
2022/01/08 01:01:09;;;;;;;40.00;36.70;;;;;;;23.00;31.15;95055.41;4918086;28;103185;-54
2022/01/08 01:03:35;;;;;;;37.40;34.30;;;;;;;22.99;30.59;95045.81;4907872;28;103029;-54
2022/01/08 01:06:00;;;;;;;45.60;41.80;;;;;;;23.01;30.87;95041.00;4897350;28;103654;-54
2022/01/08 01:08:26;;;;;;;40.87;37.57;;;;;;;23.02;30.65;95047.13;4912400;28;103301;-54
2022/01/08 01:10:52;;;;;;;41.90;38.47;;;;;;;23.00;30.96;95044.75;4901396;28;102805;-54
2022/01/08 01:13:18;;;;;;;47.30;43.33;;;;;;;23.01;30.88;95042.84;4909291;28;102856;-54
2022/01/08 01:15:44;;;;;;;42.83;39.30;;;;;;;23.01;31.06;95037.53;4899715;28;103300;-54
2022/01/08 01:18:09;;;;;;;48.50;44.40;;;;;;;23.00;30.54;95031.41;4898946;28;103097;-55
2022/01/08 01:20:35;;;;;;;42.33;38.73;;;;;;;23.00;30.67;95027.97;4912221;28;102645;-55
2022/01/08 01:25:35;;;;;;;47.07;43.13;;;;;;;22.99;30.55;95024.50;4896811;28;102848;-55
2022/01/08 01:49:13;;;;;;;41.60;38.17;;;;;;;22.97;30.99;95016.03;4911385;28;102705;-55
2022/01/08 01:51:38;;;;;;;49.77;45.67;;;;;;;22.96;30.71;95017.13;4903704;28;102741;-54
2022/01/08 01:54:04;;;;;;;51.30;47.00;;;;;;;22.97;30.73;95001.94;4913433;28;102762;-54
2022/01/08 01:56:30;;;;;;;51.77;47.57;;;;;;;22.97;30.86;95005.38;4907218;28;103773;-54
2022/01/08 01:58:56;;;;;;;41.90;38.43;;;;;;;22.97;31.08;95008.03;4907639;28;104191;-54
2022/01/08 02:01:21;;;;;;;49.83;45.73;;;;;;;22.97;30.81;94996.59;4900243;28;102980;-54
2022/01/08 02:03:47;;;;;;;47.23;43.43;;;;;;;22.98;30.60;94996.28;4908493;28;103221;-54
2022/01/08 02:06:13;;;;;;;48.47;44.53;;;;;;;22.96;31.14;94995.81;4911484;28;103113;-54
2022/01/08 02:08:39;;;;;;;45.73;42.03;;;;;;;22.96;30.44;95001.16;4903891;28;103681;-54
2022/01/08 02:11:06;;;;;;;47.97;44.00;;;;;;;22.95;30.80;94994.25;4916214;28;103085;-55
2022/01/08 02:13:32;;;;;;;51.10;47.00;;;;;;;22.96;30.69;94997.69;4909478;28;104540;-55
2022/01/08 02:16:00;;;;;;;45.27;41.60;;;;;;;22.95;30.59;94999.56;4897463;28;104975;-55
2022/01/08 02:18:27;;;;;;;43.80;40.30;;;;;;;22.94;31.43;94990.00;4899288;28;103030;-54
2022/01/08 02:20:59;;;;;;;49.10;44.97;;;;;;;22.95;30.78;94985.47;4913518;28;104424;-55
2022/01/08 02:23:26;;;;;;;43.40;39.90;;;;;;;22.95;30.41;94974.81;4904669;28;103336;-54
2022/01/08 02:26:00;;;;;;;41.60;38.30;;;;;;;22.96;30.89;94977.16;4906828;28;103378;-54
2022/01/08 02:28:26;;;;;;;46.70;42.80;;;;;;;22.95;31.35;94964.16;4907314;28;103099;-54
2022/01/08 02:30:52;;;;;;;49.20;45.13;;;;;;;22.95;30.64;94962.28;4881773;28;102877;-54
2022/01/08 02:33:17;;;;;;;50.27;46.13;;;;;;;22.94;30.88;94963.38;4905942;28;102817;-55
2022/01/08 02:35:43;;;;;;;47.37;43.43;;;;;;;22.94;30.62;94955.38;4911896;28;103367;-55
2022/01/08 02:38:08;;;;;;;49.57;45.57;;;;;;;22.95;30.56;94953.50;4903173;28;103213;-55
2022/01/08 02:40:36;;;;;;;46.70;42.80;;;;;;;22.94;30.86;94944.72;4931086;28;103082;-55
2022/01/08 02:43:04;;;;;;;43.80;40.30;;;;;;;22.95;30.54;94945.50;4921707;28;103695;-55
2022/01/08 02:45:31;;;;;;;40.73;37.47;;;;;;;22.94;30.61;94938.59;4931129;28;102730;-55
2022/01/08 02:47:57;;;;;;;39.53;36.43;;;;;;;22.93;30.84;94935.16;4879074;28;103713;-55
2022/01/08 02:50:24;;;;;;;45.00;41.40;;;;;;;22.94;31.06;94931.41;4906156;28;103012;-55
2022/01/08 02:52:50;;;;;;;41.60;38.10;;;;;;;22.91;30.57;94920.56;4900660;28;102909;-55
2022/01/08 02:55:18;;;;;;;39.70;36.60;;;;;;;22.93;30.74;94924.50;4899760;28;102739;-55
2022/01/08 02:57:45;;;;;;;44.67;40.97;;;;;;;22.92;30.82;94909.59;4909983;28;103326;-55
2022/01/08 03:00:14;;;;;;;38.40;35.20;;;;;;;22.90;30.97;94914.47;4898691;28;103112;-55
2022/01/08 03:02:44;;;;;;;44.13;40.53;;;;;;;22.90;30.84;94919.00;4900833;28;102897;-55
2022/01/08 03:05:11;;;;;;;43.73;40.20;;;;;;;22.90;30.49;94917.13;4905780;28;103588;-55
2022/01/08 03:07:38;;;;;;;41.00;37.60;;;;;;;22.92;30.47;94927.47;4909839;28;102989;-55
2022/01/08 03:10:05;;;;;;;39.07;35.97;;;;;;;22.92;30.46;94922.16;4879227;28;102909;-55
2022/01/08 03:12:31;;;;;;;37.67;34.57;;;;;;;22.90;30.62;94927.78;4907530;28;103068;-55
2022/01/08 03:14:57;;;;;;;37.40;34.40;;;;;;;22.88;30.55;94919.31;4903782;28;103589;-55
2022/01/08 03:17:22;;;;;;;40.80;37.50;;;;;;;22.90;30.96;94922.47;4897354;28;104670;-54
2022/01/08 03:19:51;;;;;;;37.20;34.20;;;;;;;22.89;30.82;94920.88;4908441;28;102625;-54
2022/01/08 03:22:17;;;;;;;42.10;38.60;;;;;;;22.90;30.62;94922.47;4895245;28;103465;-54
2022/01/08 03:24:43;;;;;;;38.13;35.10;;;;;;;22.89;30.84;94926.22;4899719;28;103288;-54
2022/01/08 03:27:08;;;;;;;35.93;33.03;;;;;;;22.88;30.77;94914.00;4903249;28;102863;-54
2022/01/08 03:29:34;;;;;;;35.60;32.70;;;;;;;22.90;30.75;94917.13;4908244;28;102766;-54
2022/01/08 03:31:59;;;;;;;36.97;33.97;;;;;;;22.91;30.96;94921.38;4911132;28;103290;-54
2022/01/08 03:34:25;;;;;;;34.23;31.50;;;;;;;22.92;30.86;94922.16;4898705;28;103177;-55
2022/01/08 03:36:50;;;;;;;37.70;34.70;;;;;;;22.91;30.61;94924.03;4909430;28;102783;-55
2022/01/08 03:39:18;;;;;;;35.50;32.70;;;;;;;22.90;30.63;94919.00;4905740;28;102980;-55
2022/01/08 03:41:44;;;;;;;33.90;31.20;;;;;;;22.91;30.81;94924.03;4900940;28;103681;-55
2022/01/08 03:44:09;;;;;;;37.90;34.90;;;;;;;22.90;30.73;94922.47;4898008;28;102707;-55
2022/01/08 03:46:35;;;;;;;36.63;33.73;;;;;;;22.91;30.71;94918.69;4900065;28;103090;-55
2022/01/08 03:51:28;;;;;;;38.23;35.17;;;;;;;22.91;30.51;94904.59;4909411;28;102886;-55
2022/01/08 03:53:54;;;;;;;36.90;33.90;;;;;;;22.91;30.45;94904.59;4913203;28;102856;-55
2022/01/08 03:56:20;;;;;;;33.67;30.93;;;;;;;22.91;30.47;94902.72;4937531;28;102883;-55
2022/01/08 03:58:45;;;;;;;32.97;30.33;;;;;;;22.90;30.53;94903.81;4925429;28;103128;-55
2022/01/08 04:01:11;;;;;;;33.97;31.17;;;;;;;22.91;30.93;94901.94;4899546;28;102669;-55
2022/01/08 04:03:37;;;;;;;35.20;32.30;;;;;;;22.91;30.64;94893.94;4901077;28;105858;-55
2022/01/08 04:06:02;;;;;;;35.63;32.83;;;;;;;22.93;30.58;94895.19;4917355;28;102702;-55
2022/01/08 04:08:28;;;;;;;32.03;29.40;;;;;;;22.92;30.92;94884.84;4898000;28;103206;-55
2022/01/08 04:10:54;;;;;;;36.70;33.80;;;;;;;22.94;30.88;94888.78;4906794;28;102758;-55
2022/01/08 04:13:26;;;;;;;36.50;33.50;;;;;;;22.94;30.97;94888.00;4915287;28;103274;-55
2022/01/08 04:15:56;;;;;;;35.87;32.97;;;;;;;22.94;30.87;94886.09;4913476;28;102736;-55
2022/01/08 04:18:22;;;;;;;36.80;33.80;;;;;;;22.95;30.65;94885.00;4907434;28;103543;-55
2022/01/08 04:23:32;;;;;;;34.80;32.00;;;;;;;22.95;30.35;94879.69;4912127;28;102798;-55
2022/01/08 04:25:57;;;;;;;33.93;31.30;;;;;;;22.93;30.74;94876.53;4909941;28;103514;-55
2022/01/08 04:28:23;;;;;;;36.77;33.87;;;;;;;22.94;30.75;94883.44;4908817;28;103270;-55
2022/01/08 04:30:49;;;;;;;38.27;35.10;;;;;;;22.95;30.63;94878.91;4913308;28;103761;-54
2022/01/08 04:33:14;;;;;;;35.40;32.50;;;;;;;22.95;30.71;94885.00;4910031;28;103122;-54
2022/01/08 04:35:40;;;;;;;33.87;31.10;;;;;;;22.95;30.47;94882.34;4916852;28;103294;-55
2022/01/08 04:38:06;;;;;;;39.07;35.97;;;;;;;22.95;30.83;94882.34;4908676;28;103012;-54
2022/01/08 04:40:32;;;;;;;36.07;33.20;;;;;;;22.94;30.42;94882.66;4912151;28;104049;-54
2022/01/08 04:42:59;;;;;;;45.90;42.00;;;;;;;22.94;30.51;94891.44;4914833;28;102987;-55
2022/01/08 04:45:29;;;;;;;45.10;41.43;;;;;;;22.95;30.57;94889.56;4917591;28;103316;-54
2022/01/08 04:47:55;;;;;;;44.80;41.10;;;;;;;22.94;30.53;94888.78;4908517;28;103328;-54
2022/01/08 04:50:21;;;;;;;50.47;46.33;;;;;;;22.94;30.37;94886.09;4906998;28;103551;-54
2022/01/08 04:52:46;;;;;;;47.50;43.60;;;;;;;22.96;30.36;94883.13;4911379;28;103057;-54
2022/01/08 04:55:12;;;;;;;48.03;44.17;;;;;;;22.96;30.90;94883.13;4913932;28;103378;-54
2022/01/08 04:57:37;;;;;;;47.40;43.50;;;;;;;22.96;30.55;94878.59;4910900;28;103523;-54
2022/01/08 05:00:04;;;;;;;42.73;39.33;;;;;;;22.96;30.50;94881.25;4896762;28;103622;-54
2022/01/08 05:02:30;;;;;;;46.33;42.43;;;;;;;22.97;30.42;94887.38;4912527;28;103426;-54
2022/01/08 05:04:55;;;;;;;43.87;40.27;;;;;;;22.96;30.61;94878.59;4909736;28;102855;-54
2022/01/08 05:07:21;;;;;;;43.50;39.93;;;;;;;22.96;30.38;94883.13;4914479;28;103090;-54
2022/01/08 05:09:47;;;;;;;43.63;40.17;;;;;;;22.96;30.37;94885.78;4910424;28;102106;-55
2022/01/08 05:12:12;;;;;;;43.90;40.30;;;;;;;22.96;30.51;94883.13;4906650;28;103097;-55
2022/01/08 05:14:38;;;;;;;40.57;37.30;;;;;;;22.97;30.35;94882.81;4911538;28;102966;-55
2022/01/08 05:17:03;;;;;;;37.87;34.87;;;;;;;22.96;30.85;94881.25;4906447;28;102863;-55
2022/01/08 05:19:50;;;;;;;38.30;35.27;;;;;;;22.97;30.70;94885.50;4916400;28;103338;-55
2022/01/08 05:22:29;;;;;;;39.77;36.50;;;;;;;22.97;30.40;94885.50;4908927;28;102887;-54
2022/01/08 05:24:56;;;;;;;38.47;35.43;;;;;;;22.96;30.64;94881.25;4897408;28;103134;-55
2022/01/08 05:27:22;;;;;;;37.80;34.70;;;;;;;22.95;30.69;94882.34;4911600;28;102953;-55
2022/01/08 05:29:50;;;;;;;39.80;36.50;;;;;;;22.95;30.56;94882.34;4906386;28;103254;-55
2022/01/08 05:32:17;;;;;;;38.97;35.77;;;;;;;22.96;30.38;94880.47;4910819;28;103086;-55
2022/01/08 05:34:50;;;;;;;38.17;35.10;;;;;;;22.97;30.25;94884.69;4907967;28;102893;-55
2022/01/08 05:37:17;;;;;;;33.80;31.07;;;;;;;22.96;30.35;94883.91;4904041;28;102714;-55
2022/01/08 05:39:43;;;;;;;39.50;36.40;;;;;;;22.96;30.45;94875.13;4909047;28;103202;-55
2022/01/08 05:42:09;;;;;;;39.53;36.23;;;;;;;22.96;30.21;94873.25;4914188;28;102696;-55
2022/01/08 05:44:34;;;;;;;33.57;30.87;;;;;;;22.95;30.47;94863.69;4912045;28;102705;-55
2022/01/08 05:47:01;;;;;;;38.00;34.90;;;;;;;22.96;30.82;94870.59;4914539;28;103219;-54
2022/01/08 05:49:27;;;;;;;36.43;33.43;;;;;;;22.96;30.12;94870.59;4907782;28;103351;-55
2022/01/08 05:51:52;;;;;;;34.90;32.10;;;;;;;22.97;30.36;94871.38;4910724;28;103384;-55
2022/01/08 05:54:18;;;;;;;37.97;34.87;;;;;;;22.96;30.53;94870.59;4911571;28;102886;-54
2022/01/08 05:56:43;;;;;;;38.63;35.43;;;;;;;22.96;30.71;94865.28;4907979;28;103022;-54
2022/01/08 05:59:09;;;;;;;35.10;32.20;;;;;;;22.95;30.43;94863.69;4903251;28;102882;-55
2022/01/08 06:01:35;;;;;;;37.63;34.50;;;;;;;22.96;30.35;94862.59;4904942;28;103409;-54
2022/01/08 06:04:03;;;;;;;35.30;32.40;;;;;;;22.95;30.65;94869.03;4906191;28;102653;-54
2022/01/08 06:06:29;;;;;;;35.77;32.90;;;;;;;22.95;30.52;94866.38;4880095;28;103389;-55
2022/01/08 06:08:55;;;;;;;34.03;31.27;;;;;;;22.95;30.77;94869.03;4909905;28;103422;-54
2022/01/08 06:11:21;;;;;;;32.67;30.07;;;;;;;22.96;30.26;94867.94;4900521;28;102688;-55
2022/01/08 06:13:47;;;;;;;35.20;32.30;;;;;;;22.95;30.41;94869.03;4914135;28;102896;-55
2022/01/08 06:16:12;;;;;;;35.73;32.63;;;;;;;22.95;30.57;94866.38;4906209;28;104669;-55
2022/01/08 06:18:39;;;;;;;35.67;32.77;;;;;;;22.96;30.48;94872.47;4904670;28;103277;-55
2022/01/08 06:21:05;;;;;;;36.30;33.40;;;;;;;22.96;30.26;94875.94;4914492;28;103196;-55
2022/01/08 06:23:31;;;;;;;37.10;34.10;;;;;;;22.96;30.24;94873.25;4902414;28;103415;-54
2022/01/08 06:25:58;;;;;;;35.10;32.20;;;;;;;22.96;30.80;94870.59;4907412;28;102848;-54
2022/01/08 06:28:23;;;;;;;36.33;33.30;;;;;;;22.97;30.83;94866.06;4906369;28;103751;-54
2022/01/08 06:30:49;;;;;;;34.93;32.07;;;;;;;22.95;30.71;94866.38;4911773;28;103489;-54
2022/01/08 06:33:15;;;;;;;33.70;31.00;;;;;;;22.96;30.33;94867.16;4910241;28;102687;-54
2022/01/08 06:35:42;;;;;;;31.47;28.80;;;;;;;22.96;30.24;94870.59;4897604;28;103309;-54
2022/01/08 06:38:08;;;;;;;31.07;28.53;;;;;;;22.97;30.71;94868.72;4895644;28;106251;-55
2022/01/08 06:40:33;;;;;;;34.37;31.57;;;;;;;22.96;30.18;94864.47;4912182;28;102770;-54
2022/01/08 06:42:59;;;;;;;31.43;28.83;;;;;;;22.96;30.21;94862.59;4914274;28;103473;-55
2022/01/08 06:45:24;;;;;;;32.57;29.83;;;;;;;22.95;30.54;94855.72;4909912;28;102863;-55
2022/01/08 06:47:50;;;;;;;32.77;30.07;;;;;;;22.95;30.78;94861.03;4905177;28;102729;-55
2022/01/08 06:50:16;;;;;;;31.00;28.50;;;;;;;22.96;30.58;94859.16;4914721;28;102766;-55
2022/01/08 06:52:41;;;;;;;31.97;29.37;;;;;;;22.95;30.52;94853.03;4911127;28;102702;-55
2022/01/08 06:55:07;;;;;;;29.73;27.33;;;;;;;22.95;30.70;94858.38;4914037;28;103135;-54
2022/01/08 06:57:33;;;;;;;30.10;27.70;;;;;;;22.95;30.24;94853.03;4912667;28;103146;-55
2022/01/08 07:00:03;;;;;;;29.10;26.63;;;;;;;22.95;30.29;94853.03;4917841;28;102787;-54
2022/01/08 07:02:29;;;;;;;30.07;27.47;;;;;;;22.94;30.44;94851.47;4912382;28;102991;-55
2022/01/08 07:04:54;;;;;;;28.93;26.53;;;;;;;22.95;30.57;94860.25;4898077;28;103264;-55
2022/01/08 07:07:20;;;;;;;29.07;26.70;;;;;;;22.94;30.75;94856.00;4894353;28;102789;-54
2022/01/08 07:09:45;;;;;;;28.90;26.40;;;;;;;22.94;30.56;94853.34;4908468;28;104500;-55
2022/01/08 07:12:11;;;;;;;29.23;26.90;;;;;;;22.95;30.42;94858.38;4910646;28;102801;-55
2022/01/08 07:14:36;;;;;;;26.13;24.03;;;;;;;22.94;30.45;94851.47;4900209;28;102892;-55
2022/01/08 07:17:02;;;;;;;29.13;26.73;;;;;;;22.94;30.57;94850.69;4900197;28;103275;-56
2022/01/08 07:19:27;;;;;;;26.30;24.10;;;;;;;22.95;30.33;94844.25;4909374;28;103328;-55
2022/01/08 07:21:53;;;;;;;27.93;25.57;;;;;;;22.93;30.57;94849.91;4899324;28;103440;-55
2022/01/08 07:24:18;;;;;;;25.43;23.37;;;;;;;22.94;30.47;94848.03;4905217;28;102715;-55
2022/01/08 07:26:44;;;;;;;24.60;22.57;;;;;;;22.94;30.54;94851.47;4911597;28;103468;-55
2022/01/08 07:29:09;;;;;;;25.60;23.50;;;;;;;22.95;30.37;94850.38;4902031;28;102700;-55
2022/01/08 07:31:35;;;;;;;23.57;21.57;;;;;;;22.95;30.72;94849.59;4907082;28;103085;-56
2022/01/08 07:34:00;;;;;;;19.70;18.00;;;;;;;22.94;30.84;94845.34;4901594;28;102661;-55
2022/01/08 07:36:26;;;;;;;17.00;15.60;;;;;;;22.93;30.54;94847.25;4908546;28;103347;-55
2022/01/08 07:38:51;;;;;;;14.53;13.43;;;;;;;22.93;31.03;94852.56;4917659;28;102758;-54
2022/01/08 07:41:17;;;;;;;16.27;14.87;;;;;;;22.96;30.60;94851.16;4914564;28;103386;-54
2022/01/08 07:43:43;;;;;;;14.40;13.20;;;;;;;22.97;30.59;94853.50;4917665;28;103214;-55
2022/01/08 07:46:08;;;;;;;15.17;13.97;;;;;;;22.98;30.72;94851.63;4912276;28;103209;-55
2022/01/08 07:48:34;;;;;;;14.67;13.47;;;;;;;22.98;30.78;94846.31;4916585;28;103391;-53
2022/01/08 07:51:00;;;;;;;14.03;12.83;;;;;;;23.01;30.65;94845.69;4906964;28;103039;-59
2022/01/08 07:53:26;;;;;;;16.93;12.10;;;;;;;23.07;30.27;94850.56;4923003;28;102834;-60
2022/01/08 07:55:51;;;;;;;12.00;11.10;;;;;;;23.09;30.60;94840.38;4903499;28;103249;-59
2022/01/08 07:58:20;;;;;;;11.57;10.57;;;;;;;23.10;30.57;94843.84;4927544;28;103297;-59
2022/01/08 08:00:50;;;;;;;11.23;10.33;;;;;;;23.07;30.22;94839.91;4916240;28;102936;-60
2022/01/08 08:03:16;;;;;;;11.00;10.10;;;;;;;23.05;30.82;94839.44;4917349;28;102775;-60
2022/01/08 08:05:42;;;;;;;9.40;8.60;;;;;;;23.03;30.69;94843.53;4915721;28;103434;-59
2022/01/08 08:08:07;;;;;;;9.23;8.53;;;;;;;23.02;30.26;94841.94;4913313;28;102912;-59
2022/01/08 08:10:33;;;;;;;8.80;7.60;;;;;;;22.99;30.32;94843.31;4899626;28;102869;-60
2022/01/08 08:13:00;;;;;;;7.43;6.73;;;;;;;22.98;30.44;94844.44;4910513;28;102824;-55
2022/01/08 08:15:25;;;;;;;4.00;3.57;;;;;;;22.80;30.08;94835.56;4916300;28;103225;-55
2022/01/08 08:17:53;;;;;;;4.30;3.90;;;;;;;22.75;29.86;94843.72;4918149;28;103721;-55
2022/01/08 08:20:18;;;;;;;4.10;3.40;;;;;;;22.81;29.88;94836.34;4920311;28;102891;-56
2022/01/08 08:22:44;;;;;;;6.30;3.50;;;;;;;22.86;29.80;94840.81;4909445;28;102900;-56
2022/01/08 08:25:11;;;;;;;3.40;2.80;;;;;;;22.86;30.05;94828.28;4917991;28;102684;-56
2022/01/08 08:27:39;;;;;;;6.17;4.00;;;;;;;22.89;29.72;94835.63;4904312;28;103528;-56
2022/01/08 08:30:06;;;;;;;4.60;3.17;;;;;;;22.93;29.76;94833.91;4916237;28;103279;-56
2022/01/08 08:32:31;;;;;;;4.80;3.40;;;;;;;22.95;29.95;94826.41;4905463;28;103135;-56
2022/01/08 08:34:57;;;;;;;4.77;3.30;;;;;;;22.95;30.28;94823.72;4913926;28;103312;-55
2022/01/08 08:37:23;;;;;;;4.07;3.40;;;;;;;22.94;30.14;94824.84;4897440;28;103060;-55
2022/01/08 08:39:49;;;;;;;9.57;3.17;;;;;;;22.86;30.55;94824.81;4910371;28;102768;-57
2022/01/08 08:42:15;;;;;;;5.93;2.60;;;;;;;22.81;30.43;94820.38;4915816;28;103014;-56
2022/01/08 08:44:40;;;;;;;3.87;2.63;;;;;;;22.84;30.33;94824.31;4937268;28;102903;-56
2022/01/08 08:47:06;;;;;;;4.83;2.70;;;;;;;22.85;30.60;94826.69;4886828;28;102811;-55
2022/01/08 08:49:32;;;;;;;4.83;2.80;;;;;;;22.86;30.43;94811.50;4920379;28;103000;-56
2022/01/08 08:51:58;;;;;;;6.20;2.80;;;;;;;22.92;30.21;94813.69;4910666;28;103052;-56
2022/01/08 08:54:23;;;;;;;5.57;3.00;;;;;;;22.88;30.88;94812.75;4900094;28;103236;-57
2022/01/08 08:56:49;;;;;;;7.03;2.23;;;;;;;22.78;31.02;94811.13;4898850;28;102593;-56
2022/01/08 08:59:14;;;;;;;6.20;2.37;;;;;;;22.80;31.24;94813.47;4899044;28;102647;-56
2022/01/08 09:01:40;;;;;;;3.73;1.90;;;;;;;22.84;31.04;94809.13;4899414;28;102724;-56
2022/01/08 09:04:06;;;;;;;2.70;2.23;;;;;;;22.87;31.55;94810.41;4898476;28;103675;-56
2022/01/08 09:06:32;;;;;;;6.93;2.57;;;;;;;22.87;32.00;94800.53;4897499;28;102815;-56
2022/01/08 09:08:58;;;;;;;4.70;2.47;;;;;;;22.89;31.72;94803.66;4897271;28;102686;-54
2022/01/08 09:11:24;;;;;;;4.20;2.20;;;;;;;22.89;32.24;94792.22;4903507;28;103302;-53
2022/01/08 09:13:50;;;;;;;5.33;2.30;;;;;;;22.90;32.10;94791.13;4909408;28;102696;-53
2022/01/08 09:16:16;;;;;;;5.90;2.33;;;;;;;22.91;32.01;94787.38;4909829;28;104417;-54
2022/01/08 09:18:41;;;;;;;5.93;2.20;;;;;;;22.91;31.77;94790.81;4916359;28;103878;-53
2022/01/08 09:21:08;;;;;;;6.47;2.80;;;;;;;22.94;31.96;94792.84;4916710;28;102831;-53
2022/01/08 09:23:33;;;;;;;9.40;2.30;;;;;;;22.99;31.92;94792.72;4917138;28;103205;-54
2022/01/08 09:26:00;;;;;;;4.40;2.43;;;;;;;23.04;32.37;94789.91;4917071;28;103362;-54
2022/01/08 09:28:26;;;;;;;4.03;2.00;;;;;;;23.05;31.80;94775.50;4916698;28;102930;-53
2022/01/08 09:30:52;;;;;;;5.20;2.33;;;;;;;23.08;32.76;94776.75;4919938;28;102708;-53
2022/01/08 09:33:17;;;;;;;5.63;2.53;;;;;;;23.10;32.11;94777.22;4936332;28;103278;-53
2022/01/08 09:35:43;;;;;;;8.40;2.70;;;;;;;23.14;32.58;94775.50;4937520;28;102772;-54
2022/01/08 09:38:08;;;;;;;5.43;3.80;;;;;;;23.15;32.32;94763.72;4936846;28;102840;-54
2022/01/08 09:40:34;;;;;;;6.43;4.23;;;;;;;23.14;32.31;94758.72;4936653;28;103911;-54
2022/01/08 09:43:01;;;;;;;5.03;4.53;;;;;;;23.10;32.36;94758.56;4916470;28;103585;-53
2022/01/08 09:45:27;;;;;;;8.60;6.63;;;;;;;23.08;32.66;94756.22;4907119;28;102794;-54
2022/01/08 09:47:52;;;;;;;7.90;7.13;;;;;;;23.08;32.19;94755.44;4913393;28;102743;-53
2022/01/08 09:50:18;;;;;;;7.13;6.53;;;;;;;23.07;32.10;94748.53;4897680;28;102845;-53
2022/01/08 09:52:44;;;;;;;7.60;6.77;;;;;;;23.06;32.03;94752.28;4915615;28;103176;-54
2022/01/08 09:55:09;;;;;;;8.97;6.60;;;;;;;23.05;32.06;94750.72;4908001;28;103636;-53
2022/01/08 09:57:35;;;;;;;7.90;7.20;;;;;;;23.03;32.21;94743.06;4913929;28;102824;-54
2022/01/08 10:00:08;;;;;;;8.50;6.13;;;;;;;23.04;32.19;94744.63;4911266;28;102892;-54
2022/01/08 10:02:33;;;;;;;13.03;7.43;;;;;;;22.98;31.84;94745.84;4913676;28;103341;-54
2022/01/08 10:05:12;;;;;;;7.10;6.43;;;;;;;22.99;31.99;94742.09;4896938;28;102692;-54
2022/01/08 10:07:38;;;;;;;12.93;7.00;;;;;;;22.99;32.24;94736.75;4898780;28;102952;-54
2022/01/08 10:10:17;;;;;;;7.93;7.10;;;;;;;22.97;32.42;94738.94;4916316;28;102774;-54
2022/01/08 10:12:59;;;;;;;7.90;6.60;;;;;;;22.97;32.52;94730.19;4909129;28;103825;-53
2022/01/08 10:18:09;;;;;;;7.47;6.40;;;;;;;22.98;32.32;94729.84;4906788;28;103245;-55
2022/01/08 10:20:38;;;;;;;7.37;5.90;;;;;;;22.98;31.92;94723.75;4915375;28;102824;-54
2022/01/08 10:23:15;;;;;;;9.30;6.00;;;;;;;22.98;32.10;94729.84;4907478;28;104648;-53
2022/01/08 10:25:54;;;;;;;6.47;5.83;;;;;;;22.98;32.10;94723.75;4896644;28;103509;-54
2022/01/08 10:28:35;;;;;;;8.67;5.73;;;;;;;23.00;32.17;94717.00;4912325;28;103052;-54
2022/01/08 10:31:24;;;;;;;12.60;6.20;;;;;;;23.07;32.80;94709.34;4911820;28;103322;-53
2022/01/08 10:33:52;;;;;;;6.23;5.63;;;;;;;23.14;33.23;94714.19;4896051;28;103314;-54
2022/01/08 10:36:30;;;;;;;9.53;5.27;;;;;;;23.14;33.97;94708.88;4896731;28;104739;-54
2022/01/08 10:38:59;;;;;;;10.23;5.30;;;;;;;23.17;34.73;94704.78;4905337;28;102516;-51
2022/01/08 10:41:26;;;;;;;10.10;4.40;;;;;;;23.17;35.23;94696.78;4902423;28;102834;-51
2022/01/08 10:44:08;;;;;;;8.73;4.50;;;;;;;23.18;34.75;94693.03;4899827;28;103268;-50
2022/01/08 10:46:34;;;;;;;6.97;5.03;;;;;;;23.18;35.13;94696.50;4900344;28;102874;-51
2022/01/08 10:49:01;;;;;;;12.30;3.93;;;;;;;23.19;35.20;94681.28;4912281;28;102765;-52
2022/01/08 10:51:32;;;;;;;10.70;3.57;;;;;;;23.20;35.53;94680.19;4914767;28;103656;-52
2022/01/08 10:54:09;;;;;;;6.60;4.40;;;;;;;23.23;35.76;94682.22;4917778;28;103503;-51
2022/01/08 10:56:44;;;;;;;7.40;4.00;;;;;;;23.23;36.15;94677.69;4916607;28;102823;-52
2022/01/08 10:59:14;;;;;;;10.10;4.03;;;;;;;23.18;35.55;94664.53;4917072;28;103532;-52
2022/01/08 11:01:41;;;;;;;10.67;4.90;;;;;;;23.14;36.09;94666.22;4917698;28;102635;-51
2022/01/08 11:04:08;;;;;;;12.53;5.00;;;;;;;23.13;35.93;94669.22;4919475;28;102676;-51
2022/01/08 11:06:50;;;;;;;13.37;5.03;;;;;;;23.07;35.26;94666.72;4905693;28;102709;-51
2022/01/08 11:09:16;;;;;;;5.67;2.80;;;;;;;22.35;32.58;94669.91;4916960;28;103175;-56
2022/01/08 11:11:43;;;;;;;3.73;2.83;;;;;;;22.48;32.61;94662.88;4928817;28;103263;-55
2022/01/08 11:14:21;;;;;;;4.60;2.30;;;;;;;22.53;32.22;94668.06;4909909;28;103985;-57
2022/01/08 11:16:50;;;;;;;6.73;3.13;;;;;;;22.54;32.66;94663.53;4914339;28;102715;-56
2022/01/08 11:19:17;;;;;;;3.43;2.47;;;;;;;22.47;32.66;94655.97;4984783;23;103670;-66
2022/01/08 11:21:42;;;;;;;5.00;2.47;;;;;;;22.48;31.93;94653.00;4934965;28;102923;-67
2022/01/08 11:24:09;;;;;;;2.77;2.47;;;;;;;22.44;31.12;94653.94;4936350;28;102771;-69
2022/01/08 11:26:37;;;;;;;5.53;3.40;;;;;;;22.38;31.79;94653.31;4949990;28;105598;-68
2022/01/08 11:29:02;;;;;;;12.43;2.93;;;;;;;22.36;32.67;94655.50;4936329;28;103157;-70
2022/01/08 11:31:33;;;;;;;3.90;2.57;;;;;;;22.29;32.57;94660.47;4926622;28;102897;-68
2022/01/08 11:34:06;;;;;;;4.90;2.83;;;;;;;22.35;31.98;94651.28;4934092;28;102808;-68
2022/01/08 11:36:34;;;;;;;4.03;2.70;;;;;;;22.30;31.69;94645.28;4952356;28;103242;-66
2022/01/08 11:38:59;;;;;;;5.30;2.57;;;;;;;22.36;31.97;94644.06;4935488;28;102816;-66
2022/01/08 11:41:28;;;;;;;3.20;2.30;;;;;;;22.07;32.20;94639.31;4933360;28;103521;-68
2022/01/08 11:43:55;;;;;;;3.20;2.20;;;;;;;22.15;32.22;94633.22;4947470;28;104756;-67